sensor_id;sensor_type;location;lat;lon;timestamp;P1;durP1;ratioP1;P2;durP2;ratioP2
78344;SDS011;67620;51.134;6.548;2023-06-24T00:02:05;10.77;;;6.07;;
78344;SDS011;67620;51.134;6.548;2023-06-24T00:04:31;13.15;;;6.65;;
78344;SDS011;67620;51.134;6.548;2023-06-24T00:06:57;10.52;;;6.15;;
78344;SDS011;67620;51.134;6.548;2023-06-24T00:09:27;11.85;;;6.60;;
78344;SDS011;67620;51.134;6.548;2023-06-24T00:11:54;7.90;;;5.50;;
78344;SDS011;67620;51.134;6.548;2023-06-24T00:14:21;8.15;;;6.47;;
78344;SDS011;67620;51.134;6.548;2023-06-24T00:16:48;10.02;;;5.68;;
78344;SDS011;67620;51.134;6.548;2023-06-24T00:19:18;12.05;;;5.60;;
78344;SDS011;67620;51.134;6.548;2023-06-24T00:21:43;12.93;;;5.60;;
78344;SDS011;67620;51.134;6.548;2023-06-24T00:24:09;13.05;;;5.80;;
78344;SDS011;67620;51.134;6.548;2023-06-24T00:26:35;9.82;;;6.15;;
78344;SDS011;67620;51.134;6.548;2023-06-24T00:31:27;10.90;;;6.13;;
78344;SDS011;67620;51.134;6.548;2023-06-24T00:33:53;10.85;;;5.85;;
78344;SDS011;67620;51.134;6.548;2023-06-24T00:36:19;12.18;;;6.80;;
78344;SDS011;67620;51.134;6.548;2023-06-24T00:38:45;12.95;;;6.93;;
78344;SDS011;67620;51.134;6.548;2023-06-24T00:41:13;12.48;;;5.80;;
78344;SDS011;67620;51.134;6.548;2023-06-24T00:43:39;10.93;;;5.35;;
78344;SDS011;67620;51.134;6.548;2023-06-24T00:46:05;10.10;;;5.35;;
78344;SDS011;67620;51.134;6.548;2023-06-24T00:48:31;12.43;;;5.47;;
78344;SDS011;67620;51.134;6.548;2023-06-24T00:50:57;14.82;;;5.60;;
78344;SDS011;67620;51.134;6.548;2023-06-24T00:53:24;13.48;;;6.20;;
78344;SDS011;67620;51.134;6.548;2023-06-24T00:55:50;10.38;;;5.75;;
78344;SDS011;67620;51.134;6.548;2023-06-24T00:58:17;12.77;;;5.75;;
78344;SDS011;67620;51.134;6.548;2023-06-24T01:00:46;12.20;;;5.72;;
78344;SDS011;67620;51.134;6.548;2023-06-24T01:03:13;13.35;;;5.10;;
78344;SDS011;67620;51.134;6.548;2023-06-24T01:05:40;12.52;;;5.70;;
78344;SDS011;67620;51.134;6.548;2023-06-24T01:08:06;13.30;;;5.55;;
78344;SDS011;67620;51.134;6.548;2023-06-24T01:10:32;12.60;;;5.50;;
78344;SDS011;67620;51.134;6.548;2023-06-24T01:12:59;9.90;;;5.35;;
78344;SDS011;67620;51.134;6.548;2023-06-24T01:15:25;10.68;;;5.82;;
78344;SDS011;67620;51.134;6.548;2023-06-24T01:20:24;13.07;;;5.78;;
78344;SDS011;67620;51.134;6.548;2023-06-24T01:28:09;9.15;;;5.28;;
78344;SDS011;67620;51.134;6.548;2023-06-24T01:33:26;8.73;;;5.72;;
78344;SDS011;67620;51.134;6.548;2023-06-24T01:35:53;8.60;;;5.63;;
78344;SDS011;67620;51.134;6.548;2023-06-24T01:38:36;11.05;;;5.85;;
78344;SDS011;67620;51.134;6.548;2023-06-24T01:41:06;14.45;;;6.15;;
78344;SDS011;67620;51.134;6.548;2023-06-24T01:43:32;9.40;;;5.28;;
78344;SDS011;67620;51.134;6.548;2023-06-24T01:45:59;8.13;;;5.47;;
78344;SDS011;67620;51.134;6.548;2023-06-24T01:48:27;10.27;;;5.72;;
78344;SDS011;67620;51.134;6.548;2023-06-24T01:50:58;12.52;;;6.25;;
78344;SDS011;67620;51.134;6.548;2023-06-24T01:53:25;13.13;;;5.65;;
78344;SDS011;67620;51.134;6.548;2023-06-24T01:55:53;14.23;;;5.63;;
78344;SDS011;67620;51.134;6.548;2023-06-24T01:58:19;10.13;;;5.10;;
78344;SDS011;67620;51.134;6.548;2023-06-24T02:00:47;17.35;;;6.05;;
78344;SDS011;67620;51.134;6.548;2023-06-24T02:03:14;15.68;;;5.82;;
78344;SDS011;67620;51.134;6.548;2023-06-24T02:05:40;14.13;;;6.32;;
78344;SDS011;67620;51.134;6.548;2023-06-24T02:08:10;21.48;;;6.68;;
78344;SDS011;67620;51.134;6.548;2023-06-24T02:10:39;14.13;;;5.88;;
78344;SDS011;67620;51.134;6.548;2023-06-24T02:13:07;13.82;;;5.78;;
78344;SDS011;67620;51.134;6.548;2023-06-24T02:15:33;16.40;;;5.80;;
78344;SDS011;67620;51.134;6.548;2023-06-24T02:18:00;12.13;;;6.13;;
78344;SDS011;67620;51.134;6.548;2023-06-24T02:20:27;12.60;;;6.00;;
78344;SDS011;67620;51.134;6.548;2023-06-24T02:22:54;21.52;;;6.60;;
78344;SDS011;67620;51.134;6.548;2023-06-24T02:25:21;18.70;;;6.20;;
78344;SDS011;67620;51.134;6.548;2023-06-24T02:27:48;21.73;;;5.57;;
78344;SDS011;67620;51.134;6.548;2023-06-24T02:30:14;20.20;;;6.28;;
78344;SDS011;67620;51.134;6.548;2023-06-24T02:32:40;21.23;;;7.18;;
78344;SDS011;67620;51.134;6.548;2023-06-24T02:35:06;14.20;;;8.02;;
78344;SDS011;67620;51.134;6.548;2023-06-24T02:37:33;23.40;;;7.80;;
78344;SDS011;67620;51.134;6.548;2023-06-24T02:39:59;22.63;;;7.43;;
78344;SDS011;67620;51.134;6.548;2023-06-24T02:42:26;23.33;;;7.75;;
78344;SDS011;67620;51.134;6.548;2023-06-24T02:44:52;18.17;;;7.97;;
78344;SDS011;67620;51.134;6.548;2023-06-24T02:47:19;19.02;;;7.10;;
78344;SDS011;67620;51.134;6.548;2023-06-24T02:49:46;22.23;;;6.97;;
78344;SDS011;67620;51.134;6.548;2023-06-24T02:52:13;14.38;;;6.93;;
78344;SDS011;67620;51.134;6.548;2023-06-24T02:54:40;16.10;;;7.10;;
78344;SDS011;67620;51.134;6.548;2023-06-24T02:57:07;16.85;;;7.28;;
78344;SDS011;67620;51.134;6.548;2023-06-24T02:59:34;18.25;;;7.85;;
78344;SDS011;67620;51.134;6.548;2023-06-24T03:02:00;14.73;;;7.57;;
78344;SDS011;67620;51.134;6.548;2023-06-24T03:04:27;17.35;;;8.90;;
78344;SDS011;67620;51.134;6.548;2023-06-24T03:06:53;15.80;;;7.95;;
78344;SDS011;67620;51.134;6.548;2023-06-24T03:09:19;12.93;;;7.38;;
78344;SDS011;67620;51.134;6.548;2023-06-24T03:11:45;24.08;;;7.78;;
78344;SDS011;67620;51.134;6.548;2023-06-24T03:14:11;15.73;;;7.30;;
78344;SDS011;67620;51.134;6.548;2023-06-24T03:16:38;16.92;;;7.85;;
78344;SDS011;67620;51.134;6.548;2023-06-24T03:19:04;18.02;;;7.43;;
78344;SDS011;67620;51.134;6.548;2023-06-24T03:21:30;20.52;;;7.93;;
78344;SDS011;67620;51.134;6.548;2023-06-24T03:23:57;13.60;;;6.85;;
78344;SDS011;67620;51.134;6.548;2023-06-24T03:26:25;17.70;;;8.13;;
78344;SDS011;67620;51.134;6.548;2023-06-24T03:28:51;16.25;;;7.25;;
78344;SDS011;67620;51.134;6.548;2023-06-24T03:31:16;15.57;;;7.38;;
78344;SDS011;67620;51.134;6.548;2023-06-24T03:36:10;18.75;;;7.80;;
78344;SDS011;67620;51.134;6.548;2023-06-24T03:38:36;12.15;;;7.90;;
78344;SDS011;67620;51.134;6.548;2023-06-24T03:41:02;16.25;;;8.52;;
78344;SDS011;67620;51.134;6.548;2023-06-24T03:43:28;15.05;;;8.07;;
78344;SDS011;67620;51.134;6.548;2023-06-24T03:45:54;15.45;;;8.73;;
78344;SDS011;67620;51.134;6.548;2023-06-24T03:48:20;14.30;;;8.50;;
78344;SDS011;67620;51.134;6.548;2023-06-24T03:50:46;16.92;;;8.55;;
78344;SDS011;67620;51.134;6.548;2023-06-24T03:53:12;15.23;;;7.97;;
78344;SDS011;67620;51.134;6.548;2023-06-24T03:58:04;15.40;;;8.88;;
78344;SDS011;67620;51.134;6.548;2023-06-24T04:02:55;22.83;;;9.07;;
78344;SDS011;67620;51.134;6.548;2023-06-24T04:05:26;19.17;;;10.57;;
78344;SDS011;67620;51.134;6.548;2023-06-24T04:07:52;23.23;;;10.82;;
78344;SDS011;67620;51.134;6.548;2023-06-24T04:10:18;25.02;;;11.02;;
78344;SDS011;67620;51.134;6.548;2023-06-24T04:12:47;19.17;;;10.30;;
78344;SDS011;67620;51.134;6.548;2023-06-24T04:15:13;19.60;;;9.48;;
78344;SDS011;67620;51.134;6.548;2023-06-24T04:17:39;21.85;;;10.65;;
78344;SDS011;67620;51.134;6.548;2023-06-24T04:20:05;18.48;;;10.65;;
78344;SDS011;67620;51.134;6.548;2023-06-24T04:22:37;19.30;;;9.90;;
78344;SDS011;67620;51.134;6.548;2023-06-24T04:25:04;24.80;;;10.48;;
78344;SDS011;67620;51.134;6.548;2023-06-24T04:27:31;17.88;;;9.38;;
78344;SDS011;67620;51.134;6.548;2023-06-24T04:29:58;19.77;;;9.88;;
78344;SDS011;67620;51.134;6.548;2023-06-24T04:32:24;18.00;;;10.35;;
78344;SDS011;67620;51.134;6.548;2023-06-24T04:34:50;22.10;;;9.35;;
78344;SDS011;67620;51.134;6.548;2023-06-24T04:37:16;17.48;;;10.35;;
78344;SDS011;67620;51.134;6.548;2023-06-24T04:39:43;16.42;;;9.55;;
78344;SDS011;67620;51.134;6.548;2023-06-24T04:42:09;26.98;;;10.93;;
78344;SDS011;67620;51.134;6.548;2023-06-24T04:44:35;19.73;;;10.10;;
78344;SDS011;67620;51.134;6.548;2023-06-24T04:47:01;18.08;;;10.40;;
78344;SDS011;67620;51.134;6.548;2023-06-24T04:49:27;22.92;;;10.20;;
78344;SDS011;67620;51.134;6.548;2023-06-24T04:51:53;21.23;;;10.60;;
78344;SDS011;67620;51.134;6.548;2023-06-24T04:56:45;24.33;;;10.90;;
78344;SDS011;67620;51.134;6.548;2023-06-24T04:59:13;20.30;;;10.48;;
78344;SDS011;67620;51.134;6.548;2023-06-24T05:01:39;17.20;;;10.13;;
78344;SDS011;67620;51.134;6.548;2023-06-24T05:04:05;19.20;;;11.25;;
78344;SDS011;67620;51.134;6.548;2023-06-24T05:06:31;16.20;;;11.52;;
78344;SDS011;67620;51.134;6.548;2023-06-24T05:08:57;16.65;;;11.23;;
78344;SDS011;67620;51.134;6.548;2023-06-24T05:11:23;21.40;;;12.10;;
78344;SDS011;67620;51.134;6.548;2023-06-24T05:13:48;15.98;;;11.55;;
78344;SDS011;67620;51.134;6.548;2023-06-24T05:18:41;16.45;;;10.15;;
78344;SDS011;67620;51.134;6.548;2023-06-24T05:21:07;22.10;;;11.85;;
78344;SDS011;67620;51.134;6.548;2023-06-24T05:23:33;19.73;;;12.43;;
78344;SDS011;67620;51.134;6.548;2023-06-24T05:25:59;17.85;;;12.20;;
78344;SDS011;67620;51.134;6.548;2023-06-24T05:28:25;16.40;;;12.13;;
78344;SDS011;67620;51.134;6.548;2023-06-24T05:30:51;16.70;;;10.50;;
78344;SDS011;67620;51.134;6.548;2023-06-24T05:33:17;15.82;;;11.30;;
78344;SDS011;67620;51.134;6.548;2023-06-24T05:35:43;14.02;;;10.50;;
78344;SDS011;67620;51.134;6.548;2023-06-24T05:38:09;18.00;;;11.43;;
78344;SDS011;67620;51.134;6.548;2023-06-24T05:40:35;16.90;;;11.15;;
78344;SDS011;67620;51.134;6.548;2023-06-24T05:43:01;18.08;;;10.75;;
78344;SDS011;67620;51.134;6.548;2023-06-24T05:45:27;16.38;;;10.20;;
78344;SDS011;67620;51.134;6.548;2023-06-24T05:47:53;18.75;;;11.40;;
78344;SDS011;67620;51.134;6.548;2023-06-24T05:50:19;17.05;;;10.43;;
78344;SDS011;67620;51.134;6.548;2023-06-24T05:52:45;13.63;;;9.77;;
78344;SDS011;67620;51.134;6.548;2023-06-24T05:57:38;16.58;;;10.00;;
78344;SDS011;67620;51.134;6.548;2023-06-24T06:00:05;14.73;;;10.60;;
78344;SDS011;67620;51.134;6.548;2023-06-24T06:02:31;15.93;;;10.77;;
78344;SDS011;67620;51.134;6.548;2023-06-24T06:04:57;14.27;;;9.73;;
78344;SDS011;67620;51.134;6.548;2023-06-24T06:09:48;12.15;;;9.23;;
78344;SDS011;67620;51.134;6.548;2023-06-24T06:14:40;13.15;;;8.50;;
78344;SDS011;67620;51.134;6.548;2023-06-24T06:19:32;12.95;;;8.23;;
78344;SDS011;67620;51.134;6.548;2023-06-24T06:21:58;12.23;;;7.78;;
78344;SDS011;67620;51.134;6.548;2023-06-24T06:24:24;12.40;;;8.20;;
78344;SDS011;67620;51.134;6.548;2023-06-24T06:26:50;13.32;;;8.15;;
78344;SDS011;67620;51.134;6.548;2023-06-24T06:29:16;11.70;;;7.35;;
78344;SDS011;67620;51.134;6.548;2023-06-24T06:31:42;10.02;;;7.38;;
78344;SDS011;67620;51.134;6.548;2023-06-24T06:34:08;12.82;;;7.55;;
78344;SDS011;67620;51.134;6.548;2023-06-24T06:36:34;11.52;;;7.53;;
78344;SDS011;67620;51.134;6.548;2023-06-24T06:39:00;11.35;;;7.32;;
78344;SDS011;67620;51.134;6.548;2023-06-24T06:41:26;10.65;;;7.28;;
78344;SDS011;67620;51.134;6.548;2023-06-24T06:43:52;10.60;;;6.78;;
78344;SDS011;67620;51.134;6.548;2023-06-24T06:46:18;9.82;;;7.50;;
78344;SDS011;67620;51.134;6.548;2023-06-24T06:48:44;12.48;;;7.32;;
78344;SDS011;67620;51.134;6.548;2023-06-24T06:51:10;12.43;;;7.80;;
78344;SDS011;67620;51.134;6.548;2023-06-24T06:53:36;12.38;;;7.35;;
78344;SDS011;67620;51.134;6.548;2023-06-24T06:56:02;11.13;;;8.55;;
78344;SDS011;67620;51.134;6.548;2023-06-24T06:58:28;9.90;;;6.72;;
78344;SDS011;67620;51.134;6.548;2023-06-24T07:00:53;13.75;;;8.15;;
78344;SDS011;67620;51.134;6.548;2023-06-24T07:03:19;10.80;;;8.15;;
78344;SDS011;67620;51.134;6.548;2023-06-24T07:05:46;13.48;;;7.88;;
78344;SDS011;67620;51.134;6.548;2023-06-24T07:08:12;10.25;;;7.85;;
78344;SDS011;67620;51.134;6.548;2023-06-24T07:10:38;10.73;;;7.78;;
78344;SDS011;67620;51.134;6.548;2023-06-24T07:13:04;11.43;;;7.32;;
78344;SDS011;67620;51.134;6.548;2023-06-24T07:15:30;10.65;;;7.18;;
78344;SDS011;67620;51.134;6.548;2023-06-24T07:17:56;11.05;;;7.30;;
78344;SDS011;67620;51.134;6.548;2023-06-24T07:20:22;10.68;;;7.40;;
78344;SDS011;67620;51.134;6.548;2023-06-24T07:22:48;10.57;;;6.80;;
78344;SDS011;67620;51.134;6.548;2023-06-24T07:27:39;42.03;;;29.52;;
78344;SDS011;67620;51.134;6.548;2023-06-24T07:30:05;16.17;;;8.82;;
78344;SDS011;67620;51.134;6.548;2023-06-24T07:32:31;10.30;;;6.80;;
78344;SDS011;67620;51.134;6.548;2023-06-24T07:34:57;8.88;;;5.97;;
78344;SDS011;67620;51.134;6.548;2023-06-24T07:37:23;7.88;;;6.07;;
78344;SDS011;67620;51.134;6.548;2023-06-24T07:39:49;11.77;;;6.35;;
78344;SDS011;67620;51.134;6.548;2023-06-24T07:42:15;14.77;;;8.88;;
78344;SDS011;67620;51.134;6.548;2023-06-24T07:44:44;12.32;;;7.63;;
78344;SDS011;67620;51.134;6.548;2023-06-24T07:47:10;9.98;;;7.20;;
78344;SDS011;67620;51.134;6.548;2023-06-24T07:49:36;8.82;;;6.90;;
78344;SDS011;67620;51.134;6.548;2023-06-24T07:52:02;10.68;;;7.43;;
78344;SDS011;67620;51.134;6.548;2023-06-24T07:54:29;13.60;;;7.72;;
78344;SDS011;67620;51.134;6.548;2023-06-24T07:56:55;15.45;;;8.15;;
78344;SDS011;67620;51.134;6.548;2023-06-24T07:59:21;10.43;;;6.97;;
78344;SDS011;67620;51.134;6.548;2023-06-24T08:01:47;19.65;;;15.35;;
78344;SDS011;67620;51.134;6.548;2023-06-24T08:04:14;11.50;;;7.72;;
78344;SDS011;67620;51.134;6.548;2023-06-24T08:06:40;9.15;;;6.63;;
78344;SDS011;67620;51.134;6.548;2023-06-24T08:09:06;10.45;;;6.63;;
78344;SDS011;67620;51.134;6.548;2023-06-24T08:11:32;9.90;;;6.68;;
78344;SDS011;67620;51.134;6.548;2023-06-24T08:13:58;10.88;;;7.53;;
78344;SDS011;67620;51.134;6.548;2023-06-24T08:16:24;11.85;;;8.07;;
78344;SDS011;67620;51.134;6.548;2023-06-24T08:18:50;12.45;;;8.05;;
78344;SDS011;67620;51.134;6.548;2023-06-24T08:21:16;15.00;;;9.15;;
78344;SDS011;67620;51.134;6.548;2023-06-24T08:23:42;13.40;;;8.70;;
78344;SDS011;67620;51.134;6.548;2023-06-24T08:26:08;12.77;;;9.95;;
78344;SDS011;67620;51.134;6.548;2023-06-24T08:28:34;14.43;;;8.90;;
78344;SDS011;67620;51.134;6.548;2023-06-24T08:31:01;14.57;;;9.30;;
78344;SDS011;67620;51.134;6.548;2023-06-24T08:33:26;15.27;;;9.93;;
78344;SDS011;67620;51.134;6.548;2023-06-24T08:35:52;12.80;;;8.95;;
78344;SDS011;67620;51.134;6.548;2023-06-24T08:38:18;15.40;;;9.45;;
78344;SDS011;67620;51.134;6.548;2023-06-24T08:40:44;11.70;;;8.20;;
78344;SDS011;67620;51.134;6.548;2023-06-24T08:43:11;14.20;;;9.20;;
78344;SDS011;67620;51.134;6.548;2023-06-24T08:45:37;14.32;;;10.20;;
78344;SDS011;67620;51.134;6.548;2023-06-24T08:48:03;15.70;;;11.50;;
78344;SDS011;67620;51.134;6.548;2023-06-24T08:50:34;15.90;;;11.30;;
78344;SDS011;67620;51.134;6.548;2023-06-24T08:53:02;14.02;;;8.73;;
78344;SDS011;67620;51.134;6.548;2023-06-24T08:55:28;14.30;;;9.80;;
78344;SDS011;67620;51.134;6.548;2023-06-24T08:57:57;16.60;;;10.20;;
78344;SDS011;67620;51.134;6.548;2023-06-24T09:00:22;13.80;;;9.30;;
78344;SDS011;67620;51.134;6.548;2023-06-24T09:02:49;14.32;;;10.60;;
78344;SDS011;67620;51.134;6.548;2023-06-24T09:05:15;13.45;;;8.68;;
78344;SDS011;67620;51.134;6.548;2023-06-24T09:07:41;11.73;;;8.55;;
78344;SDS011;67620;51.134;6.548;2023-06-24T09:10:07;9.82;;;6.38;;
78344;SDS011;67620;51.134;6.548;2023-06-24T09:12:34;12.82;;;7.80;;
78344;SDS011;67620;51.134;6.548;2023-06-24T09:15:00;11.23;;;7.10;;
78344;SDS011;67620;51.134;6.548;2023-06-24T09:17:26;15.25;;;8.52;;
78344;SDS011;67620;51.134;6.548;2023-06-24T09:19:53;11.68;;;8.27;;
78344;SDS011;67620;51.134;6.548;2023-06-24T09:22:19;12.43;;;7.63;;
78344;SDS011;67620;51.134;6.548;2023-06-24T09:24:46;9.70;;;6.75;;
78344;SDS011;67620;51.134;6.548;2023-06-24T09:27:16;13.98;;;8.38;;
78344;SDS011;67620;51.134;6.548;2023-06-24T09:29:44;8.75;;;6.60;;
78344;SDS011;67620;51.134;6.548;2023-06-24T09:32:12;9.70;;;6.10;;
78344;SDS011;67620;51.134;6.548;2023-06-24T09:34:38;13.07;;;8.35;;
78344;SDS011;67620;51.134;6.548;2023-06-24T09:37:04;12.60;;;8.25;;
78344;SDS011;67620;51.134;6.548;2023-06-24T09:39:37;15.20;;;8.60;;
78344;SDS011;67620;51.134;6.548;2023-06-24T09:42:04;13.90;;;8.68;;
78344;SDS011;67620;51.134;6.548;2023-06-24T09:44:30;12.95;;;8.15;;
78344;SDS011;67620;51.134;6.548;2023-06-24T09:46:57;18.50;;;9.05;;
78344;SDS011;67620;51.134;6.548;2023-06-24T09:49:23;11.27;;;8.35;;
78344;SDS011;67620;51.134;6.548;2023-06-24T09:51:49;9.07;;;5.13;;
78344;SDS011;67620;51.134;6.548;2023-06-24T09:54:16;12.10;;;7.88;;
78344;SDS011;67620;51.134;6.548;2023-06-24T09:56:45;13.23;;;4.85;;
78344;SDS011;67620;51.134;6.548;2023-06-24T09:59:13;9.98;;;6.68;;
78344;SDS011;67620;51.134;6.548;2023-06-24T10:01:41;10.40;;;7.38;;
78344;SDS011;67620;51.134;6.548;2023-06-24T10:04:07;13.30;;;6.60;;
78344;SDS011;67620;51.134;6.548;2023-06-24T10:06:33;9.93;;;5.95;;
78344;SDS011;67620;51.134;6.548;2023-06-24T10:09:00;11.57;;;6.18;;
78344;SDS011;67620;51.134;6.548;2023-06-24T10:11:26;10.82;;;6.22;;
78344;SDS011;67620;51.134;6.548;2023-06-24T10:13:52;9.20;;;6.65;;
78344;SDS011;67620;51.134;6.548;2023-06-24T10:16:19;7.97;;;5.80;;
78344;SDS011;67620;51.134;6.548;2023-06-24T10:18:46;9.93;;;5.93;;
78344;SDS011;67620;51.134;6.548;2023-06-24T10:21:12;9.30;;;4.95;;
78344;SDS011;67620;51.134;6.548;2023-06-24T10:23:41;7.15;;;5.53;;
78344;SDS011;67620;51.134;6.548;2023-06-24T10:26:21;8.40;;;5.72;;
78344;SDS011;67620;51.134;6.548;2023-06-24T10:44:54;4.65;;;3.42;;
78344;SDS011;67620;51.134;6.548;2023-06-24T10:47:21;16.98;;;4.10;;
78344;SDS011;67620;51.134;6.548;2023-06-24T10:49:48;4.97;;;3.72;;
78344;SDS011;67620;51.134;6.548;2023-06-24T10:52:14;4.95;;;3.35;;
78344;SDS011;67620;51.134;6.548;2023-06-24T10:54:40;6.68;;;3.53;;
78344;SDS011;67620;51.134;6.548;2023-06-24T10:57:07;6.15;;;3.63;;
78344;SDS011;67620;51.134;6.548;2023-06-24T10:59:39;3.85;;;2.65;;
78344;SDS011;67620;51.134;6.548;2023-06-24T11:02:07;15.10;;;6.85;;
78344;SDS011;67620;51.134;6.548;2023-06-24T11:04:42;4.40;;;3.05;;
78344;SDS011;67620;51.134;6.548;2023-06-24T11:07:08;6.80;;;3.38;;
78344;SDS011;67620;51.134;6.548;2023-06-24T11:09:34;4.90;;;3.25;;
78344;SDS011;67620;51.134;6.548;2023-06-24T11:12:02;5.13;;;3.63;;
78344;SDS011;67620;51.134;6.548;2023-06-24T11:14:28;4.78;;;3.45;;
78344;SDS011;67620;51.134;6.548;2023-06-24T11:16:54;5.72;;;3.08;;
78344;SDS011;67620;51.134;6.548;2023-06-24T11:19:20;3.60;;;2.72;;
78344;SDS011;67620;51.134;6.548;2023-06-24T11:21:46;5.25;;;2.85;;
78344;SDS011;67620;51.134;6.548;2023-06-24T11:24:12;3.47;;;2.50;;
78344;SDS011;67620;51.134;6.548;2023-06-24T11:26:38;3.35;;;2.15;;
78344;SDS011;67620;51.134;6.548;2023-06-24T11:29:10;2.78;;;2.33;;
78344;SDS011;67620;51.134;6.548;2023-06-24T11:31:36;3.80;;;2.38;;
78344;SDS011;67620;51.134;6.548;2023-06-24T11:34:03;4.22;;;2.30;;
78344;SDS011;67620;51.134;6.548;2023-06-24T11:36:29;3.75;;;2.20;;
78344;SDS011;67620;51.134;6.548;2023-06-24T11:38:55;2.83;;;2.00;;
78344;SDS011;67620;51.134;6.548;2023-06-24T11:41:21;3.28;;;1.92;;
78344;SDS011;67620;51.134;6.548;2023-06-24T11:43:48;3.53;;;2.30;;
78344;SDS011;67620;51.134;6.548;2023-06-24T11:46:20;2.50;;;2.17;;
78344;SDS011;67620;51.134;6.548;2023-06-24T11:48:46;3.53;;;2.15;;
78344;SDS011;67620;51.134;6.548;2023-06-24T11:51:12;3.58;;;2.25;;
78344;SDS011;67620;51.134;6.548;2023-06-24T11:53:42;4.18;;;2.38;;
78344;SDS011;67620;51.134;6.548;2023-06-24T11:56:09;3.60;;;2.40;;
78344;SDS011;67620;51.134;6.548;2023-06-24T11:58:35;3.47;;;2.13;;
78344;SDS011;67620;51.134;6.548;2023-06-24T12:01:01;3.13;;;2.42;;
78344;SDS011;67620;51.134;6.548;2023-06-24T12:03:28;2.80;;;2.20;;
78344;SDS011;67620;51.134;6.548;2023-06-24T12:05:54;2.45;;;2.10;;
78344;SDS011;67620;51.134;6.548;2023-06-24T12:08:21;4.55;;;1.98;;
78344;SDS011;67620;51.134;6.548;2023-06-24T12:10:48;3.75;;;2.15;;
78344;SDS011;67620;51.134;6.548;2023-06-24T12:13:14;3.30;;;2.17;;
78344;SDS011;67620;51.134;6.548;2023-06-24T12:15:40;3.58;;;2.30;;
78344;SDS011;67620;51.134;6.548;2023-06-24T12:18:06;2.90;;;2.20;;
78344;SDS011;67620;51.134;6.548;2023-06-24T12:20:33;3.85;;;2.00;;
78344;SDS011;67620;51.134;6.548;2023-06-24T12:23:01;2.97;;;2.22;;
78344;SDS011;67620;51.134;6.548;2023-06-24T12:25:27;3.30;;;2.10;;
78344;SDS011;67620;51.134;6.548;2023-06-24T12:27:52;3.45;;;2.15;;
78344;SDS011;67620;51.134;6.548;2023-06-24T12:30:18;2.58;;;1.85;;
78344;SDS011;67620;51.134;6.548;2023-06-24T12:32:46;3.85;;;2.25;;
78344;SDS011;67620;51.134;6.548;2023-06-24T12:35:12;5.28;;;2.50;;
78344;SDS011;67620;51.134;6.548;2023-06-24T12:37:38;3.97;;;2.95;;
78344;SDS011;67620;51.134;6.548;2023-06-24T12:40:04;3.50;;;2.13;;
78344;SDS011;67620;51.134;6.548;2023-06-24T12:42:30;4.15;;;1.88;;
78344;SDS011;67620;51.134;6.548;2023-06-24T12:44:56;3.33;;;2.15;;
78344;SDS011;67620;51.134;6.548;2023-06-24T12:47:22;3.95;;;2.70;;
78344;SDS011;67620;51.134;6.548;2023-06-24T12:49:51;2.45;;;1.88;;
78344;SDS011;67620;51.134;6.548;2023-06-24T12:52:17;2.70;;;2.22;;
78344;SDS011;67620;51.134;6.548;2023-06-24T12:54:44;2.75;;;2.10;;
78344;SDS011;67620;51.134;6.548;2023-06-24T12:57:10;4.07;;;2.20;;
78344;SDS011;67620;51.134;6.548;2023-06-24T12:59:36;2.40;;;1.60;;
78344;SDS011;67620;51.134;6.548;2023-06-24T13:02:02;3.85;;;1.80;;
78344;SDS011;67620;51.134;6.548;2023-06-24T13:04:27;3.75;;;1.60;;
78344;SDS011;67620;51.134;6.548;2023-06-24T13:06:55;3.97;;;1.83;;
78344;SDS011;67620;51.134;6.548;2023-06-24T13:09:20;3.65;;;1.50;;
78344;SDS011;67620;51.134;6.548;2023-06-24T13:11:46;2.40;;;1.40;;
78344;SDS011;67620;51.134;6.548;2023-06-24T13:14:14;2.22;;;1.33;;
78344;SDS011;67620;51.134;6.548;2023-06-24T13:16:40;3.08;;;1.30;;
78344;SDS011;67620;51.134;6.548;2023-06-24T13:19:06;1.90;;;1.20;;
78344;SDS011;67620;51.134;6.548;2023-06-24T13:21:32;1.88;;;1.00;;
78344;SDS011;67620;51.134;6.548;2023-06-24T13:23:58;2.45;;;1.30;;
78344;SDS011;67620;51.134;6.548;2023-06-24T13:26:23;1.70;;;1.20;;
78344;SDS011;67620;51.134;6.548;2023-06-24T13:28:49;4.13;;;1.80;;
78344;SDS011;67620;51.134;6.548;2023-06-24T13:31:17;2.78;;;1.60;;
78344;SDS011;67620;51.134;6.548;2023-06-24T13:33:43;2.75;;;1.73;;
78344;SDS011;67620;51.134;6.548;2023-06-24T13:36:11;2.90;;;1.48;;
78344;SDS011;67620;51.134;6.548;2023-06-24T13:38:39;2.35;;;1.35;;
78344;SDS011;67620;51.134;6.548;2023-06-24T13:41:05;3.13;;;1.55;;
78344;SDS011;67620;51.134;6.548;2023-06-24T13:43:31;2.47;;;1.20;;
78344;SDS011;67620;51.134;6.548;2023-06-24T13:45:56;2.67;;;1.40;;
78344;SDS011;67620;51.134;6.548;2023-06-24T13:48:23;2.85;;;1.63;;
78344;SDS011;67620;51.134;6.548;2023-06-24T13:50:48;2.50;;;1.42;;
78344;SDS011;67620;51.134;6.548;2023-06-24T13:53:15;3.05;;;1.50;;
78344;SDS011;67620;51.134;6.548;2023-06-24T13:55:41;2.55;;;1.40;;
78344;SDS011;67620;51.134;6.548;2023-06-24T13:58:07;2.55;;;1.90;;
78344;SDS011;67620;51.134;6.548;2023-06-24T14:00:33;2.17;;;1.38;;
78344;SDS011;67620;51.134;6.548;2023-06-24T14:02:59;3.30;;;1.63;;
78344;SDS011;67620;51.134;6.548;2023-06-24T14:05:25;2.47;;;1.58;;
78344;SDS011;67620;51.134;6.548;2023-06-24T14:07:51;2.90;;;1.60;;
78344;SDS011;67620;51.134;6.548;2023-06-24T14:10:17;2.13;;;1.60;;
78344;SDS011;67620;51.134;6.548;2023-06-24T14:12:43;2.00;;;1.33;;
78344;SDS011;67620;51.134;6.548;2023-06-24T14:15:09;2.05;;;1.42;;
78344;SDS011;67620;51.134;6.548;2023-06-24T14:17:35;2.92;;;1.40;;
78344;SDS011;67620;51.134;6.548;2023-06-24T14:20:01;2.80;;;1.50;;
78344;SDS011;67620;51.134;6.548;2023-06-24T14:22:28;2.00;;;1.45;;
78344;SDS011;67620;51.134;6.548;2023-06-24T14:24:54;2.03;;;1.60;;
78344;SDS011;67620;51.134;6.548;2023-06-24T14:27:20;4.50;;;1.48;;
78344;SDS011;67620;51.134;6.548;2023-06-24T14:29:45;2.25;;;1.58;;
78344;SDS011;67620;51.134;6.548;2023-06-24T14:32:11;2.08;;;1.33;;
78344;SDS011;67620;51.134;6.548;2023-06-24T14:34:37;3.33;;;1.80;;
78344;SDS011;67620;51.134;6.548;2023-06-24T14:37:03;2.65;;;1.70;;
78344;SDS011;67620;51.134;6.548;2023-06-24T14:39:29;3.17;;;1.42;;
78344;SDS011;67620;51.134;6.548;2023-06-24T14:41:55;2.40;;;1.67;;
78344;SDS011;67620;51.134;6.548;2023-06-24T14:44:21;2.83;;;1.85;;
78344;SDS011;67620;51.134;6.548;2023-06-24T14:46:47;3.88;;;1.88;;
78344;SDS011;67620;51.134;6.548;2023-06-24T14:49:13;3.17;;;1.88;;
78344;SDS011;67620;51.134;6.548;2023-06-24T14:51:39;2.25;;;1.40;;
78344;SDS011;67620;51.134;6.548;2023-06-24T14:54:05;1.63;;;1.17;;
78344;SDS011;67620;51.134;6.548;2023-06-24T14:56:31;2.60;;;1.48;;
78344;SDS011;67620;51.134;6.548;2023-06-24T14:58:58;2.17;;;1.60;;
78344;SDS011;67620;51.134;6.548;2023-06-24T15:01:24;2.97;;;1.80;;
78344;SDS011;67620;51.134;6.548;2023-06-24T15:03:50;2.08;;;1.30;;
78344;SDS011;67620;51.134;6.548;2023-06-24T15:06:16;2.00;;;1.40;;
78344;SDS011;67620;51.134;6.548;2023-06-24T15:08:42;2.42;;;1.70;;
78344;SDS011;67620;51.134;6.548;2023-06-24T15:11:08;4.80;;;1.60;;
78344;SDS011;67620;51.134;6.548;2023-06-24T15:13:34;3.28;;;1.73;;
78344;SDS011;67620;51.134;6.548;2023-06-24T15:16:00;2.55;;;1.67;;
78344;SDS011;67620;51.134;6.548;2023-06-24T15:18:25;2.35;;;1.40;;
78344;SDS011;67620;51.134;6.548;2023-06-24T15:20:51;2.05;;;1.55;;
78344;SDS011;67620;51.134;6.548;2023-06-24T15:23:19;2.25;;;1.73;;
78344;SDS011;67620;51.134;6.548;2023-06-24T15:25:45;3.47;;;1.77;;
78344;SDS011;67620;51.134;6.548;2023-06-24T15:28:11;2.92;;;1.50;;